sensor_id;sensor_type;location;lat;lon;timestamp;pressure;altitude;pressure_sealevel;temperature;humidity
25664;BME280;13522;50.018;20.014;2023-02-18T00:00:58;98414.77;;;10.66;100.00
25664;BME280;13522;50.018;20.014;2023-02-18T00:04:10;98431.02;;;10.63;100.00
25664;BME280;13522;50.018;20.014;2023-02-18T00:07:22;98417.06;;;10.61;100.00
25664;BME280;13522;50.018;20.014;2023-02-18T00:10:34;98413.24;;;10.64;100.00
25664;BME280;13522;50.018;20.014;2023-02-18T00:13:52;98410.30;;;10.67;100.00
25664;BME280;13522;50.018;20.014;2023-02-18T00:17:05;98397.02;;;10.67;100.00
25664;BME280;13522;50.018;20.014;2023-02-18T00:20:17;98413.41;;;10.62;100.00
25664;BME280;13522;50.018;20.014;2023-02-18T00:23:29;98413.12;;;10.65;100.00
25664;BME280;13522;50.018;20.014;2023-02-18T00:26:42;98411.14;;;10.67;100.00
25664;BME280;13522;50.018;20.014;2023-02-18T00:29:58;98401.20;;;10.69;100.00
25664;BME280;13522;50.018;20.014;2023-02-18T00:33:11;98402.49;;;10.65;100.00
25664;BME280;13522;50.018;20.014;2023-02-18T00:36:24;98392.31;;;10.61;100.00
25664;BME280;13522;50.018;20.014;2023-02-18T00:39:37;98398.77;;;10.58;100.00
25664;BME280;13522;50.018;20.014;2023-02-18T00:42:49;98396.11;;;10.58;100.00
25664;BME280;13522;50.018;20.014;2023-02-18T00:46:01;98398.55;;;10.69;100.00
25664;BME280;13522;50.018;20.014;2023-02-18T00:49:14;98399.59;;;10.76;100.00
25664;BME280;13522;50.018;20.014;2023-02-18T00:52:27;98407.11;;;10.81;100.00
25664;BME280;13522;50.018;20.014;2023-02-18T00:55:41;98400.56;;;10.93;100.00
25664;BME280;13522;50.018;20.014;2023-02-18T00:58:54;98393.80;;;10.98;100.00
25664;BME280;13522;50.018;20.014;2023-02-18T01:02:06;98400.77;;;10.99;100.00
25664;BME280;13522;50.018;20.014;2023-02-18T01:05:18;98410.09;;;11.03;100.00
25664;BME280;13522;50.018;20.014;2023-02-18T01:08:32;98415.11;;;11.06;100.00
25664;BME280;13522;50.018;20.014;2023-02-18T01:11:45;98414.95;;;11.08;100.00
25664;BME280;13522;50.018;20.014;2023-02-18T01:14:57;98422.47;;;11.12;100.00
25664;BME280;13522;50.018;20.014;2023-02-18T01:18:10;98433.39;;;11.09;100.00
25664;BME280;13522;50.018;20.014;2023-02-18T01:21:22;98460.91;;;11.00;100.00
25664;BME280;13522;50.018;20.014;2023-02-18T01:24:37;98476.02;;;10.82;100.00
25664;BME280;13522;50.018;20.014;2023-02-18T01:27:51;98502.04;;;10.61;100.00
25664;BME280;13522;50.018;20.014;2023-02-18T01:31:07;98479.62;;;10.46;100.00
25664;BME280;13522;50.018;20.014;2023-02-18T01:34:21;98514.50;;;10.33;100.00
25664;BME280;13522;50.018;20.014;2023-02-18T01:37:33;98511.59;;;10.27;100.00
25664;BME280;13522;50.018;20.014;2023-02-18T01:40:50;98506.59;;;10.24;100.00
25664;BME280;13522;50.018;20.014;2023-02-18T01:44:16;98508.15;;;10.17;100.00
25664;BME280;13522;50.018;20.014;2023-02-18T01:47:30;98497.02;;;10.04;100.00
25664;BME280;13522;50.018;20.014;2023-02-18T01:50:46;98505.94;;;10.03;100.00
25664;BME280;13522;50.018;20.014;2023-02-18T01:54:03;98512.63;;;10.07;100.00
25664;BME280;13522;50.018;20.014;2023-02-18T01:57:20;98517.67;;;10.00;99.38
25664;BME280;13522;50.018;20.014;2023-02-18T02:00:35;98518.13;;;9.96;97.84
25664;BME280;13522;50.018;20.014;2023-02-18T02:03:47;98519.40;;;9.92;97.54
25664;BME280;13522;50.018;20.014;2023-02-18T02:06:59;98501.11;;;9.89;93.96
25664;BME280;13522;50.018;20.014;2023-02-18T02:10:12;98528.90;;;9.85;94.17
25664;BME280;13522;50.018;20.014;2023-02-18T02:13:31;98504.64;;;9.80;93.74
25664;BME280;13522;50.018;20.014;2023-02-18T02:16:51;98521.94;;;9.84;88.97
25664;BME280;13522;50.018;20.014;2023-02-18T02:20:35;98521.05;;;9.93;86.45
25664;BME280;13522;50.018;20.014;2023-02-18T02:24:36;98510.70;;;9.99;86.94
25664;BME280;13522;50.018;20.014;2023-02-18T02:32:26;98533.63;;;9.91;87.19
25664;BME280;13522;50.018;20.014;2023-02-18T02:35:47;98531.01;;;9.81;86.52
25664;BME280;13522;50.018;20.014;2023-02-18T02:39:05;98519.17;;;9.76;87.56
25664;BME280;13522;50.018;20.014;2023-02-18T02:42:25;98539.00;;;9.72;88.16
25664;BME280;13522;50.018;20.014;2023-02-18T02:45:50;98533.84;;;9.70;89.55
25664;BME280;13522;50.018;20.014;2023-02-18T02:49:11;98541.11;;;9.68;85.73
25664;BME280;13522;50.018;20.014;2023-02-18T02:52:27;98527.00;;;9.68;84.15
25664;BME280;13522;50.018;20.014;2023-02-18T02:55:41;98538.16;;;9.71;81.63
25664;BME280;13522;50.018;20.014;2023-02-18T02:58:58;98544.72;;;9.67;80.67
25664;BME280;13522;50.018;20.014;2023-02-18T03:02:24;98558.13;;;9.66;80.74
25664;BME280;13522;50.018;20.014;2023-02-18T03:05:46;98558.97;;;9.66;81.53
25664;BME280;13522;50.018;20.014;2023-02-18T03:09:06;98578.64;;;9.63;82.54
25664;BME280;13522;50.018;20.014;2023-02-18T03:12:27;98583.10;;;9.63;80.71
25664;BME280;13522;50.018;20.014;2023-02-18T03:15:45;98584.25;;;9.60;82.25
25664;BME280;13522;50.018;20.014;2023-02-18T03:19:04;98577.25;;;9.59;81.62
25664;BME280;13522;50.018;20.014;2023-02-18T03:22:22;98591.92;;;9.54;82.85
25664;BME280;13522;50.018;20.014;2023-02-18T03:25:39;98598.73;;;9.47;83.47
25664;BME280;13522;50.018;20.014;2023-02-18T03:28:52;98595.28;;;9.46;85.94
25664;BME280;13522;50.018;20.014;2023-02-18T03:32:08;98601.14;;;9.40;88.34
25664;BME280;13522;50.018;20.014;2023-02-18T03:35:24;98604.20;;;9.36;90.53
25664;BME280;13522;50.018;20.014;2023-02-18T03:38:50;98608.51;;;9.27;90.69
25664;BME280;13522;50.018;20.014;2023-02-18T03:42:06;98602.66;;;9.24;92.13
25664;BME280;13522;50.018;20.014;2023-02-18T03:45:18;98607.41;;;9.20;93.63
25664;BME280;13522;50.018;20.014;2023-02-18T03:48:30;98612.96;;;9.17;93.34
25664;BME280;13522;50.018;20.014;2023-02-18T03:51:43;98612.27;;;9.15;93.43
25664;BME280;13522;50.018;20.014;2023-02-18T03:54:56;98629.41;;;9.11;91.22
25664;BME280;13522;50.018;20.014;2023-02-18T03:58:08;98617.70;;;9.14;85.94
25664;BME280;13522;50.018;20.014;2023-02-18T04:01:21;98614.91;;;9.15;84.77
25664;BME280;13522;50.018;20.014;2023-02-18T04:04:33;98627.75;;;9.10;85.24
25664;BME280;13522;50.018;20.014;2023-02-18T04:07:46;98638.05;;;9.04;87.31
25664;BME280;13522;50.018;20.014;2023-02-18T04:13:58;98629.38;;;8.92;91.86
25664;BME280;13522;50.018;20.014;2023-02-18T04:17:10;98638.31;;;8.91;95.22
25664;BME280;13522;50.018;20.014;2023-02-18T04:20:23;98631.33;;;8.90;97.68
25664;BME280;13522;50.018;20.014;2023-02-18T04:34:20;98645.06;;;8.65;100.00
25664;BME280;13522;50.018;20.014;2023-02-18T04:37:32;98630.14;;;8.64;99.29
25664;BME280;13522;50.018;20.014;2023-02-18T04:40:44;98634.72;;;8.62;96.79
25664;BME280;13522;50.018;20.014;2023-02-18T04:43:56;98632.53;;;8.67;93.08
25664;BME280;13522;50.018;20.014;2023-02-18T04:47:08;98632.08;;;8.62;92.95
25664;BME280;13522;50.018;20.014;2023-02-18T04:50:22;98633.77;;;8.63;89.64
25664;BME280;13522;50.018;20.014;2023-02-18T04:53:34;98627.48;;;8.64;85.54
25664;BME280;13522;50.018;20.014;2023-02-18T04:56:46;98637.13;;;8.65;82.52
25664;BME280;13522;50.018;20.014;2023-02-18T04:59:58;98634.10;;;8.79;73.02
25664;BME280;13522;50.018;20.014;2023-02-18T05:03:11;98635.91;;;8.79;71.20
25664;BME280;13522;50.018;20.014;2023-02-18T05:06:23;98628.11;;;8.77;70.26
25664;BME280;13522;50.018;20.014;2023-02-18T05:09:35;98647.76;;;8.84;69.13
25664;BME280;13522;50.018;20.014;2023-02-18T05:12:47;98661.14;;;8.83;69.61
25664;BME280;13522;50.018;20.014;2023-02-18T05:16:00;98655.00;;;8.82;70.95
25664;BME280;13522;50.018;20.014;2023-02-18T05:19:18;98661.68;;;8.77;69.63
25664;BME280;13522;50.018;20.014;2023-02-18T05:22:30;98656.36;;;8.67;66.71
25664;BME280;13522;50.018;20.014;2023-02-18T05:25:42;98674.01;;;8.57;66.78
25664;BME280;13522;50.018;20.014;2023-02-18T05:28:54;98653.22;;;8.52;65.51
25664;BME280;13522;50.018;20.014;2023-02-18T05:32:06;98663.49;;;8.46;66.43
25664;BME280;13522;50.018;20.014;2023-02-18T05:35:18;98662.36;;;8.39;65.78
25664;BME280;13522;50.018;20.014;2023-02-18T05:38:30;98664.30;;;8.37;65.09
25664;BME280;13522;50.018;20.014;2023-02-18T05:41:42;98680.17;;;8.37;65.35
25664;BME280;13522;50.018;20.014;2023-02-18T05:44:54;98673.75;;;8.30;66.28
25664;BME280;13522;50.018;20.014;2023-02-18T05:48:06;98677.83;;;8.23;67.84
25664;BME280;13522;50.018;20.014;2023-02-18T05:51:19;98676.28;;;8.20;68.72
25664;BME280;13522;50.018;20.014;2023-02-18T05:54:31;98682.69;;;8.18;68.95
25664;BME280;13522;50.018;20.014;2023-02-18T05:57:44;98689.27;;;8.23;66.26
25664;BME280;13522;50.018;20.014;2023-02-18T06:00:56;98677.63;;;8.26;64.34
25664;BME280;13522;50.018;20.014;2023-02-18T06:04:08;98694.64;;;8.33;60.22
25664;BME280;13522;50.018;20.014;2023-02-18T06:07:20;98701.86;;;8.31;59.64
25664;BME280;13522;50.018;20.014;2023-02-18T06:10:32;98701.16;;;8.29;59.02
25664;BME280;13522;50.018;20.014;2023-02-18T06:13:44;98703.34;;;8.24;59.42
25664;BME280;13522;50.018;20.014;2023-02-18T06:16:56;98704.28;;;8.23;59.00
25664;BME280;13522;50.018;20.014;2023-02-18T06:20:11;98703.58;;;8.21;59.15
25664;BME280;13522;50.018;20.014;2023-02-18T06:23:23;98696.48;;;8.21;58.96
25664;BME280;13522;50.018;20.014;2023-02-18T06:26:35;98688.20;;;8.26;59.14
25664;BME280;13522;50.018;20.014;2023-02-18T06:29:47;98690.19;;;8.33;58.77
25664;BME280;13522;50.018;20.014;2023-02-18T06:32:59;98686.03;;;8.40;56.26
25664;BME280;13522;50.018;20.014;2023-02-18T06:36:13;98692.22;;;8.50;55.78
25664;BME280;13522;50.018;20.014;2023-02-18T06:39:25;98698.67;;;8.57;55.39
25664;BME280;13522;50.018;20.014;2023-02-18T06:42:38;98700.91;;;8.62;55.54
25664;BME280;13522;50.018;20.014;2023-02-18T06:45:55;98707.33;;;8.59;56.13
25664;BME280;13522;50.018;20.014;2023-02-18T06:49:10;98705.95;;;8.65;56.03
25664;BME280;13522;50.018;20.014;2023-02-18T06:52:23;98707.36;;;8.69;56.58
25664;BME280;13522;50.018;20.014;2023-02-18T06:55:39;98709.20;;;8.78;54.27
25664;BME280;13522;50.018;20.014;2023-02-18T06:58:52;98707.96;;;8.82;55.57
25664;BME280;13522;50.018;20.014;2023-02-18T07:02:08;98714.11;;;8.83;55.07
25664;BME280;13522;50.018;20.014;2023-02-18T07:05:22;98710.22;;;8.87;55.17
25664;BME280;13522;50.018;20.014;2023-02-18T07:08:34;98714.67;;;8.86;55.32
25664;BME280;13522;50.018;20.014;2023-02-18T07:11:47;98712.73;;;8.88;54.24
25664;BME280;13522;50.018;20.014;2023-02-18T07:14:59;98710.64;;;8.92;54.90
25664;BME280;13522;50.018;20.014;2023-02-18T07:18:12;98720.30;;;9.02;53.87
25664;BME280;13522;50.018;20.014;2023-02-18T07:21:25;98723.12;;;9.10;52.87
25664;BME280;13522;50.018;20.014;2023-02-18T07:24:43;98727.43;;;9.11;53.75
25664;BME280;13522;50.018;20.014;2023-02-18T07:27:55;98738.03;;;9.11;53.47
25664;BME280;13522;50.018;20.014;2023-02-18T07:31:09;98728.42;;;9.10;53.72
25664;BME280;13522;50.018;20.014;2023-02-18T07:34:21;98720.08;;;9.15;53.47
25664;BME280;13522;50.018;20.014;2023-02-18T07:37:33;98718.67;;;9.11;54.60
25664;BME280;13522;50.018;20.014;2023-02-18T07:40:47;98714.47;;;9.08;53.85
25664;BME280;13522;50.018;20.014;2023-02-18T07:43:59;98704.72;;;9.09;53.58
25664;BME280;13522;50.018;20.014;2023-02-18T07:47:14;98706.94;;;9.13;54.67
25664;BME280;13522;50.018;20.014;2023-02-18T07:50:28;98662.41;;;8.88;55.86
25664;BME280;13522;50.018;20.014;2023-02-18T07:53:42;98694.14;;;9.18;56.78
25664;BME280;13522;50.018;20.014;2023-02-18T07:56:54;98704.73;;;9.18;55.28
25664;BME280;13522;50.018;20.014;2023-02-18T08:00:09;98696.64;;;9.20;56.27
25664;BME280;13522;50.018;20.014;2023-02-18T08:03:24;98691.48;;;9.18;55.14
25664;BME280;13522;50.018;20.014;2023-02-18T08:06:40;98687.99;;;9.18;55.15
25664;BME280;13522;50.018;20.014;2023-02-18T08:09:53;98688.15;;;9.26;53.94
25664;BME280;13522;50.018;20.014;2023-02-18T08:13:05;98701.70;;;9.32;52.40
25664;BME280;13522;50.018;20.014;2023-02-18T08:16:19;98706.56;;;9.27;53.32
25664;BME280;13522;50.018;20.014;2023-02-18T08:19:31;98712.55;;;9.29;54.41
25664;BME280;13522;50.018;20.014;2023-02-18T08:22:43;98701.41;;;9.26;53.78
25664;BME280;13522;50.018;20.014;2023-02-18T08:25:55;98713.95;;;9.24;54.44
25664;BME280;13522;50.018;20.014;2023-02-18T08:29:07;98710.59;;;9.22;53.31
25664;BME280;13522;50.018;20.014;2023-02-18T08:32:20;98715.75;;;9.23;54.49
25664;BME280;13522;50.018;20.014;2023-02-18T08:35:32;98720.80;;;9.26;54.38
25664;BME280;13522;50.018;20.014;2023-02-18T08:38:45;98728.19;;;9.23;54.13
25664;BME280;13522;50.018;20.014;2023-02-18T08:41:59;98712.00;;;9.26;52.64
25664;BME280;13522;50.018;20.014;2023-02-18T08:45:12;98716.61;;;9.33;51.96
25664;BME280;13522;50.018;20.014;2023-02-18T08:48:24;98711.76;;;9.38;52.05
25664;BME280;13522;50.018;20.014;2023-02-18T08:51:38;98722.22;;;9.40;52.20
25664;BME280;13522;50.018;20.014;2023-02-18T08:54:50;98719.16;;;9.44;52.12
25664;BME280;13522;50.018;20.014;2023-02-18T08:58:04;98710.07;;;9.47;51.56
25664;BME280;13522;50.018;20.014;2023-02-18T09:04:17;98718.47;;;9.61;51.35
25664;BME280;13522;50.018;20.014;2023-02-18T09:07:30;98715.53;;;9.55;52.15
25664;BME280;13522;50.018;20.014;2023-02-18T09:10:42;98715.41;;;9.56;52.28
25664;BME280;13522;50.018;20.014;2023-02-18T09:17:02;98721.53;;;9.57;51.72
25664;BME280;13522;50.018;20.014;2023-02-18T09:23:16;98736.48;;;9.58;51.99
25664;BME280;13522;50.018;20.014;2023-02-18T09:26:28;98743.43;;;9.49;51.04
25664;BME280;13522;50.018;20.014;2023-02-18T09:29:42;98734.08;;;9.45;51.54
25664;BME280;13522;50.018;20.014;2023-02-18T09:32:55;98741.07;;;9.46;53.01
25664;BME280;13522;50.018;20.014;2023-02-18T09:36:08;98735.48;;;9.49;53.45
25664;BME280;13522;50.018;20.014;2023-02-18T09:39:22;98732.13;;;9.47;53.08
25664;BME280;13522;50.018;20.014;2023-02-18T09:42:35;98731.87;;;9.50;52.58
25664;BME280;13522;50.018;20.014;2023-02-18T09:45:47;98734.67;;;9.58;53.77
25664;BME280;13522;50.018;20.014;2023-02-18T09:49:03;98721.42;;;9.58;54.08
25664;BME280;13522;50.018;20.014;2023-02-18T09:52:22;98710.38;;;9.53;55.10
25664;BME280;13522;50.018;20.014;2023-02-18T09:55:39;98720.57;;;9.58;54.24
25664;BME280;13522;50.018;20.014;2023-02-18T09:58:52;98722.23;;;9.59;55.92
25664;BME280;13522;50.018;20.014;2023-02-18T10:02:08;98717.22;;;9.56;56.55
25664;BME280;13522;50.018;20.014;2023-02-18T10:05:27;98719.31;;;9.52;56.83
25664;BME280;13522;50.018;20.014;2023-02-18T10:08:43;98696.01;;;9.46;57.52
25664;BME280;13522;50.018;20.014;2023-02-18T10:11:59;98698.36;;;9.49;58.02
25664;BME280;13522;50.018;20.014;2023-02-18T10:15:20;98681.61;;;9.49;57.88
25664;BME280;13522;50.018;20.014;2023-02-18T10:21:34;98682.60;;;9.67;58.91
25664;BME280;13522;50.018;20.014;2023-02-18T10:24:53;98664.61;;;9.80;59.29
25664;BME280;13522;50.018;20.014;2023-02-18T10:37:12;98650.09;;;9.84;56.48
25664;BME280;13522;50.018;20.014;2023-02-18T10:40:37;98649.66;;;9.79;56.31
25664;BME280;13522;50.018;20.014;2023-02-18T10:44:01;98665.59;;;9.70;57.15
25664;BME280;13522;50.018;20.014;2023-02-18T10:47:22;98640.33;;;9.66;57.37
25664;BME280;13522;50.018;20.014;2023-02-18T10:50:39;98667.14;;;9.63;58.34
25664;BME280;13522;50.018;20.014;2023-02-18T10:53:54;98678.84;;;9.60;59.31
25664;BME280;13522;50.018;20.014;2023-02-18T10:57:12;98664.75;;;9.59;59.84
25664;BME280;13522;50.018;20.014;2023-02-18T11:00:32;98655.13;;;9.58;61.67
25664;BME280;13522;50.018;20.014;2023-02-18T11:03:48;98646.19;;;9.59;61.39
25664;BME280;13522;50.018;20.014;2023-02-18T11:07:04;98633.22;;;9.56;61.90
25664;BME280;13522;50.018;20.014;2023-02-18T11:10:25;98636.42;;;9.60;62.94
25664;BME280;13522;50.018;20.014;2023-02-18T11:13:41;98628.63;;;9.58;63.01
25664;BME280;13522;50.018;20.014;2023-02-18T11:16:58;98625.52;;;9.63;63.99
25664;BME280;13522;50.018;20.014;2023-02-18T11:20:33;98618.02;;;9.58;64.87
25664;BME280;13522;50.018;20.014;2023-02-18T11:26:47;98628.73;;;9.67;65.79
25664;BME280;13522;50.018;20.014;2023-02-18T11:30:02;98616.46;;;9.66;66.93
25664;BME280;13522;50.018;20.014;2023-02-18T11:33:20;98616.05;;;9.70;66.38
25664;BME280;13522;50.018;20.014;2023-02-18T11:36:35;98598.88;;;9.55;67.48
25664;BME280;13522;50.018;20.014;2023-02-18T11:39:50;98606.84;;;9.45;67.53
25664;BME280;13522;50.018;20.014;2023-02-18T11:43:06;98615.91;;;9.33;68.38
25664;BME280;13522;50.018;20.014;2023-02-18T11:46:24;98608.95;;;9.32;69.79
25664;BME280;13522;50.018;20.014;2023-02-18T11:49:37;98607.14;;;9.33;71.08
25664;BME280;13522;50.018;20.014;2023-02-18T11:52:51;98597.36;;;9.14;73.73
25664;BME280;13522;50.018;20.014;2023-02-18T11:56:16;98607.80;;;9.06;74.14
25664;BME280;13522;50.018;20.014;2023-02-18T11:59:29;98607.63;;;8.79;76.67
25664;BME280;13522;50.018;20.014;2023-02-18T12:02:43;98603.42;;;8.77;78.67
25664;BME280;13522;50.018;20.014;2023-02-18T12:05:57;98612.03;;;8.59;79.89
25664;BME280;13522;50.018;20.014;2023-02-18T12:09:19;98607.92;;;8.46;81.32
25664;BME280;13522;50.018;20.014;2023-02-18T12:12:39;98601.50;;;8.39;82.83
25664;BME280;13522;50.018;20.014;2023-02-18T12:16:00;98593.78;;;8.26;84.46
25664;BME280;13522;50.018;20.014;2023-02-18T12:19:35;98588.42;;;8.17;85.85
25664;BME280;13522;50.018;20.014;2023-02-18T12:22:55;98598.05;;;8.18;86.63
25664;BME280;13522;50.018;20.014;2023-02-18T12:26:17;98592.58;;;8.10;87.68
25664;BME280;13522;50.018;20.014;2023-02-18T12:29:44;98587.28;;;8.10;88.06
25664;BME280;13522;50.018;20.014;2023-02-18T12:33:09;98579.77;;;8.15;89.64
25664;BME280;13522;50.018;20.014;2023-02-18T12:36:30;98579.45;;;8.29;89.35
25664;BME280;13522;50.018;20.014;2023-02-18T12:39:59;98579.63;;;8.37;88.85
25664;BME280;13522;50.018;20.014;2023-02-18T12:43:24;98568.05;;;8.38;88.41
25664;BME280;13522;50.018;20.014;2023-02-18T12:46:50;98551.39;;;8.47;88.76
25664;BME280;13522;50.018;20.014;2023-02-18T12:50:32;98537.31;;;8.46;88.21
25664;BME280;13522;50.018;20.014;2023-02-18T12:54:11;98531.77;;;8.49;88.12
25664;BME280;13522;50.018;20.014;2023-02-18T12:57:39;98532.72;;;8.48;89.28
25664;BME280;13522;50.018;20.014;2023-02-18T13:01:05;98524.23;;;8.54;89.76
25664;BME280;13522;50.018;20.014;2023-02-18T13:04:45;98521.43;;;8.46;89.96
25664;BME280;13522;50.018;20.014;2023-02-18T13:08:14;98502.66;;;8.49;91.23
25664;BME280;13522;50.018;20.014;2023-02-18T13:11:40;98491.20;;;8.39;92.21
25664;BME280;13522;50.018;20.014;2023-02-18T13:15:00;98488.00;;;8.36;93.51
25664;BME280;13522;50.018;20.014;2023-02-18T13:18:17;98487.72;;;8.39;95.08
25664;BME280;13522;50.018;20.014;2023-02-18T13:21:31;98474.77;;;8.36;94.50
25664;BME280;13522;50.018;20.014;2023-02-18T13:24:47;98472.78;;;8.28;94.09
25664;BME280;13522;50.018;20.014;2023-02-18T13:28:05;98473.72;;;8.18;95.46
25664;BME280;13522;50.018;20.014;2023-02-18T13:31:30;98473.39;;;8.02;95.06
25664;BME280;13522;50.018;20.014;2023-02-18T13:34:52;98459.47;;;8.00;95.68
25664;BME280;13522;50.018;20.014;2023-02-18T13:38:29;98444.84;;;7.96;95.41
25664;BME280;13522;50.018;20.014;2023-02-18T13:42:31;98435.65;;;7.90;97.02
25664;BME280;13522;50.018;20.014;2023-02-18T13:46:07;98436.20;;;7.94;97.97
25664;BME280;13522;50.018;20.014;2023-02-18T13:49:22;98438.52;;;7.77;98.53
25664;BME280;13522;50.018;20.014;2023-02-18T13:52:35;98421.53;;;7.70;99.25
25664;BME280;13522;50.018;20.014;2023-02-18T13:55:53;98421.75;;;7.58;99.60
25664;BME280;13522;50.018;20.014;2023-02-18T13:59:14;98407.61;;;7.68;99.54
25664;BME280;13522;50.018;20.014;2023-02-18T14:02:35;98400.92;;;7.64;98.96
25664;BME280;13522;50.018;20.014;2023-02-18T14:05:48;98390.04;;;7.58;99.07
25664;BME280;13522;50.018;20.014;2023-02-18T14:09:39;98385.60;;;7.58;99.60
25664;BME280;13522;50.018;20.014;2023-02-18T14:20:44;98342.70;;;7.45;100.00
25664;BME280;13522;50.018;20.014;2023-02-18T14:24:00;98334.08;;;7.43;100.00
25664;BME280;13522;50.018;20.014;2023-02-18T14:27:16;98304.85;;;7.35;100.00
25664;BME280;13522;50.018;20.014;2023-02-18T14:30:32;98333.83;;;7.46;100.00
25664;BME280;13522;50.018;20.014;2023-02-18T14:33:48;98310.44;;;7.42;100.00
25664;BME280;13522;50.018;20.014;2023-02-18T14:37:12;98305.44;;;7.39;100.00
25664;BME280;13522;50.018;20.014;2023-02-18T14:46:42;98271.05;;;7.29;100.00
25664;BME280;13522;50.018;20.014;2023-02-18T14:50:01;98275.94;;;7.34;100.00
25664;BME280;13522;50.018;20.014;2023-02-18T14:53:18;98272.04;;;7.28;100.00
25664;BME280;13522;50.018;20.014;2023-02-18T14:56:33;98256.75;;;7.32;100.00
25664;BME280;13522;50.018;20.014;2023-02-18T14:59:47;98253.97;;;7.33;100.00
25664;BME280;13522;50.018;20.014;2023-02-18T15:03:01;98245.63;;;7.28;100.00
25664;BME280;13522;50.018;20.014;2023-02-18T15:06:29;98238.41;;;7.30;100.00
25664;BME280;13522;50.018;20.014;2023-02-18T15:09:48;98228.09;;;7.27;100.00
25664;BME280;13522;50.018;20.014;2023-02-18T15:13:04;98237.54;;;7.20;100.00
25664;BME280;13522;50.018;20.014;2023-02-18T15:16:22;98215.27;;;7.13;100.00
25664;BME280;13522;50.018;20.014;2023-02-18T15:22:38;98231.00;;;7.15;100.00
25664;BME280;13522;50.018;20.014;2023-02-18T15:25:52;98184.97;;;7.08;100.00
25664;BME280;13522;50.018;20.014;2023-02-18T15:38:05;98163.04;;;7.07;100.00
25664;BME280;13522;50.018;20.014;2023-02-18T15:41:55;98153.72;;;7.03;100.00
25664;BME280;13522;50.018;20.014;2023-02-18T15:45:16;98151.63;;;6.97;100.00
25664;BME280;13522;50.018;20.014;2023-02-18T15:48:34;98135.34;;;6.92;100.00
25664;BME280;13522;50.018;20.014;2023-02-18T15:51:54;98132.98;;;6.89;100.00
25664;BME280;13522;50.018;20.014;2023-02-18T15:58:15;98106.29;;;6.82;100.00
25664;BME280;13522;50.018;20.014;2023-02-18T16:01:30;98092.80;;;6.76;100.00
25664;BME280;13522;50.018;20.014;2023-02-18T16:04:49;98099.06;;;6.75;100.00
25664;BME280;13522;50.018;20.014;2023-02-18T16:08:16;98080.98;;;6.70;100.00
25664;BME280;13522;50.018;20.014;2023-02-18T16:11:36;98077.34;;;6.62;100.00
25664;BME280;13522;50.018;20.014;2023-02-18T16:14:52;98073.22;;;6.69;100.00
25664;BME280;13522;50.018;20.014;2023-02-18T16:18:17;98078.63;;;6.67;100.00
25664;BME280;13522;50.018;20.014;2023-02-18T16:33:44;98043.20;;;6.70;100.00
25664;BME280;13522;50.018;20.014;2023-02-18T16:36:57;98051.83;;;6.81;100.00
25664;BME280;13522;50.018;20.014;2023-02-18T16:40:29;98041.86;;;6.85;100.00
25664;BME280;13522;50.018;20.014;2023-02-18T16:49:43;98037.56;;;7.03;100.00
25664;BME280;13522;50.018;20.014;2023-02-18T17:08:19;98048.02;;;7.79;100.00
25664;BME280;13522;50.018;20.014;2023-02-18T17:11:35;98056.45;;;7.93;100.00
25664;BME280;13522;50.018;20.014;2023-02-18T17:14:47;98046.67;;;8.03;100.00
25664;BME280;13522;50.018;20.014;2023-02-18T17:17:59;98047.48;;;8.13;100.00
25664;BME280;13522;50.018;20.014;2023-02-18T17:21:13;98041.06;;;8.25;100.00
25664;BME280;13522;50.018;20.014;2023-02-18T17:24:26;98035.97;;;8.41;100.00
25664;BME280;13522;50.018;20.014;2023-02-18T17:27:41;98052.03;;;8.57;100.00
25664;BME280;13522;50.018;20.014;2023-02-18T17:30:55;98043.28;;;8.74;100.00
25664;BME280;13522;50.018;20.014;2023-02-18T17:34:11;98052.60;;;8.96;100.00
25664;BME280;13522;50.018;20.014;2023-02-18T17:37:25;98043.25;;;9.19;100.00
25664;BME280;13522;50.018;20.014;2023-02-18T17:40:37;98045.88;;;9.36;100.00
25664;BME280;13522;50.018;20.014;2023-02-18T17:43:50;98041.33;;;9.46;100.00
25664;BME280;13522;50.018;20.014;2023-02-18T17:47:02;98041.91;;;9.58;100.00
25664;BME280;13522;50.018;20.014;2023-02-18T17:50:15;98038.63;;;9.64;100.00
25664;BME280;13522;50.018;20.014;2023-02-18T17:53:28;98045.80;;;9.72;100.00
25664;BME280;13522;50.018;20.014;2023-02-18T17:56:40;98043.21;;;9.80;100.00
25664;BME280;13522;50.018;20.014;2023-02-18T17:59:52;98032.61;;;9.80;100.00
25664;BME280;13522;50.018;20.014;2023-02-18T18:03:05;98039.09;;;9.85;100.00
25664;BME280;13522;50.018;20.014;2023-02-18T18:06:20;98048.92;;;9.93;100.00
25664;BME280;13522;50.018;20.014;2023-02-18T18:09:33;98056.25;;;9.99;100.00
25664;BME280;13522;50.018;20.014;2023-02-18T18:12:45;98066.34;;;9.95;100.00
25664;BME280;13522;50.018;20.014;2023-02-18T18:15:58;98073.41;;;9.87;100.00
25664;BME280;13522;50.018;20.014;2023-02-18T18:19:11;98083.28;;;9.77;100.00
25664;BME280;13522;50.018;20.014;2023-02-18T18:25:26;98076.63;;;9.73;100.00
25664;BME280;13522;50.018;20.014;2023-02-18T19:56:08;98183.67;;;9.89;100.00
25664;BME280;13522;50.018;20.014;2023-02-18T20:11:44;98192.47;;;9.90;100.00
25664;BME280;13522;50.018;20.014;2023-02-18T20:15:00;98195.56;;;9.85;100.00
25664;BME280;13522;50.018;20.014;2023-02-18T22:05:10;98394.41;;;8.56;100.00
25664;BME280;13522;50.018;20.014;2023-02-18T22:11:23;98401.50;;;8.46;100.00
25664;BME280;13522;50.018;20.014;2023-02-18T22:14:35;98407.23;;;8.41;100.00
25664;BME280;13522;50.018;20.014;2023-02-18T22:17:48;98408.89;;;8.33;100.00
25664;BME280;13522;50.018;20.014;2023-02-18T22:21:04;98423.92;;;8.32;100.00
25664;BME280;13522;50.018;20.014;2023-02-18T22:24:18;98405.84;;;8.28;100.00
25664;BME280;13522;50.018;20.014;2023-02-18T22:27:32;98416.93;;;8.22;100.00
25664;BME280;13522;50.018;20.014;2023-02-18T22:30:44;98427.25;;;8.25;100.00